Rakoskert, Hungary

4:01 PM CET on February 21, 2017 (GMT +0100)
Szigetcsep u. | | Change Station

Elev 669 ft 47.47 °N, 19.31 °E | Updated 1 minute ago

Rain
Rain
47.3 °F
Feels Like 47 °F
N
0.0
Wind Variable Wind from West
Gusts 0.0 mph

Today
High -- | Low -- °F
--% Chance of Precip.
Yesterday
High -- | Low -- °F
Precip. -- in
Pressure 29.86 in
Visibility 6.2 miles
Clouds Mostly Cloudy 2800 ft
Overcast 4500 ft
Windchill 47 °F
Dew Point 43 °F
Humidity 86%
Rainfall 0.02 in
Snow Depth Not available.
6:37 AM 5:15 PM
Waning Crescent, 25% visible
METAR LHKE 211445Z 26008KT 9999 BKN028 OVC045 08/04 Q1011 RERA NOSIG RMK BLU
Pressure 29.86 in
Visibility 6.2 miles
Clouds Mostly Cloudy 2800 ft
Overcast 4500 ft
Windchill 47 °F
Dew Point 43 °F
Humidity 86%
Rainfall 0.02 in
Snow Depth Not available.
6:37 AM 5:15 PM
Waning Crescent, 25% visible
METAR LHKE 211445Z 26008KT 9999 BKN028 OVC045 08/04 Q1011 RERA NOSIG RMK BLU

Get Your Daily Forecast Email!

Thanks for signing up!

Be on the lookout for a verification email in your inbox.

You'll start receiving the daily forecast at 8 AM.

×

10-Day Weather Forecast

×

Almanac

Astronomy

Feb. 21, 2017 Rise Set
Actual Time
Civil Twilight
Nautical Twilight
Astronomical Twilight
Moon
Length of Visible Light
Length of Day
Tomorrow will be .
, % of the Moon is Illuminated

Today's Extremes

Country Highs Country Lows

Community

WunderPhotos

Upload Photos

1,962,540 photos uploaded!

WunderBlog® & News

Nearby

Air Quality

  Air Quality AQ Index Pollutant
Not available.

Snow Depth

Station Depth Elevation

Earthquake Activity

City Distance Mag. Time & Date
Minimum magnitude displayed is 2.5.

Coastal Water Temperatures

Place Temperature

Stations

Nearby Weather Stations

Station Location Temp. Windchill Dew Point Humidity Wind Precip. Elev Updated Type